Mount Isa Airport
YBMA : now visible

Airfield :











YOU CAN JOIN US ON...

 
LOGIN :

Register | Disclaimer

   EN    FR    IT 

 









Legend :    VFR   Marginal VFR   IFR   Intensive IFR   Very Intensive IFR
Visi :
Ceiling :
>= 8 km
>= 3000ft
5 to 8 km
1000 to 3000 ft
1500m to 5 km
500 to 1000 ft
800 to 1500m
200 to 500 ft
< 800m
< 200 ft
Symbols :   Thunderstorms  Fog  Heavy snow  Heavy precipitations  Wind > 20 kt






- Airport Elevation : 1121 ft
- IATA code : ISA


YBMA - Mount Isa

CURRENT METAR :
  • 012144Z AUTO 17011KT 9999 // SCT013 OVC036 11/08 Q1020

EXPIRED METARs :
  • 012130Z AUTO 17014KT 9999 // BKN013 OVC036 11/08 Q1020
  • 012108Z AUTO 17012KT 9999 // BKN013 BKN034 OVC097 11/08 Q1020
  • 012100Z AUTO 17013KT 9999 // SCT013 BKN034 OVC095 11/08 Q1020
  • 012030Z AUTO 16012KT 9999 // SCT034 OVC095 11/08 Q1019
  • 012000Z AUTO 16013KT 9999 // BKN036 OVC065 11/08 Q1019
  • 010530Z AUTO 19010KT 9999 -RA OVC007 OVC012 13/13 Q1020
  • 011930Z AUTO 17011KT 9999 // SCT036 OVC065 11/08 Q1019

TAF AMD TAF YBMA
Valid from the 01 at 16:00 until the 02 at 06:00 UTC


011648Z 0116/0206 18012KT 9999 -RA SCT008 OVC025
BECMG 0200/0202 15014KT 9999 NSW BKN020
TEMPO 0116/0202 3000 DZ BKN005
YBBB FIR / Oceania



MET'MAP, your aeronautical weather chart ! - Copyright ORBIFLY December 2007 - Disclaimer

ORBIFLY MET'MAP TEAM :

Programming & Development : Alexandra Zaïnal
Original concept : Baudouin d'Aumeries
Technical & hardware support : Manuel Goepfert
Assistance : Marc-Olivier Méhu




SOURCES & CREDITS :

   NOAA       Earth
Advisory